PWSweather.com
Personal Weather Stations
Station Observations

MakarauRodneyNZ

Lat: -36.52421, Lon: 174.47572

Elevation: 606

Station Type: Davis VP2

http://kaiparaweather.dynu.net/index.php

High Low Average
Temperature 75.8°F24.3°C 61.5°F16.4°C 67.8°F19.9°C
Dew Point 63.0°F17.2°C 56.1°F13.4°C 59.9°F15.5°C
Winds 5.8 mph 9.3 kmh Calm Calm 1.0 mph NE1.6 kmh NE
Wind Gusts 17.3 mph27.8 kmh -- 4.0 mph6.4 kmh
Humidity 93% 62% 77%
Pressure 30.28 in1025.4 mb 30.21 in1023.0 mb -
Precipitation 0.02 in0.5 mm - -
Hour Temp Dew Point Humidity Winds Wind Gusts Pressure Precip Precip Rate Daily Precip Total
06:40 AM 61.5°F16.4°C 59.5°F15.3°C 93% Calm Calm -- 30.22 in1023.4 mb - 0.00 in0.0 mm 0.02 in0.5 mm
06:50 AM 61.6°F16.4°C 59.6°F15.3°C 93% Calm Calm -- 30.22 in1023.4 mb - 0.00 in0.0 mm 0.02 in0.5 mm
07:00 AM 61.5°F16.4°C 59.4°F15.2°C 93% Calm Calm -- 30.23 in1023.7 mb - 0.00 in0.0 mm 0.02 in0.5 mm
07:10 AM 61.5°F16.4°C 59.4°F15.2°C 93% Calm Calm 3.5 mph5.6 kmh 30.23 in1023.7 mb - 0.00 in0.0 mm 0.02 in0.5 mm
07:20 AM 61.5°F16.4°C 59.5°F15.3°C 93% 1.2 mph NE1.9 kmh NE 3.5 mph5.6 kmh 30.23 in1023.7 mb - 0.00 in0.0 mm 0.02 in0.5 mm
07:30 AM 61.7°F16.5°C 59.7°F15.4°C 93% Calm Calm -- 30.23 in1023.7 mb - 0.00 in0.0 mm 0.02 in0.5 mm
07:40 AM 61.8°F16.6°C 59.8°F15.4°C 93% 1.2 mph NE1.9 kmh NE 4.6 mph7.4 kmh 30.24 in1024.0 mb - 0.00 in0.0 mm 0.02 in0.5 mm
07:50 AM 62.2°F16.8°C 60.1°F15.6°C 93% 1.2 mph NNE1.9 kmh NNE 6.9 mph11.1 kmh 30.24 in1024.0 mb - 0.00 in0.0 mm 0.02 in0.5 mm
08:00 AM 62.6°F17.0°C 60.5°F15.8°C 93% Calm Calm 4.6 mph7.4 kmh 30.24 in1024.0 mb - 0.00 in0.0 mm 0.02 in0.5 mm
08:10 AM 62.9°F17.2°C 60.5°F15.8°C 92% Calm Calm 9.2 mph14.8 kmh 30.24 in1024.0 mb - 0.00 in0.0 mm 0.02 in0.5 mm
08:20 AM 63.2°F17.3°C 60.2°F15.7°C 90% Calm Calm -- 30.24 in1024.0 mb - 0.00 in0.0 mm 0.02 in0.5 mm
08:30 AM 63.7°F17.6°C 60.4°F15.8°C 89% Calm Calm -- 30.24 in1024.0 mb - 0.00 in0.0 mm 0.02 in0.5 mm
08:40 AM 64.2°F17.9°C 60.3°F15.7°C 87% Calm Calm 3.5 mph5.6 kmh 30.24 in1024.0 mb - 0.00 in0.0 mm 0.02 in0.5 mm
08:50 AM 65.1°F18.4°C 61.1°F16.2°C 87% Calm Calm -- 30.25 in1024.4 mb - 0.00 in0.0 mm 0.02 in0.5 mm
09:00 AM 65.7°F18.7°C 60.7°F15.9°C 84% 1.2 mph NE1.9 kmh NE 5.8 mph9.3 kmh 30.25 in1024.4 mb - 0.00 in0.0 mm 0.02 in0.5 mm
09:10 AM 66.8°F19.3°C 61.1°F16.2°C 82% 2.3 mph ENE3.7 kmh ENE 10.4 mph16.7 kmh 30.25 in1024.4 mb - 0.00 in0.0 mm 0.02 in0.5 mm
09:20 AM 66.9°F19.4°C 60.5°F15.8°C 80% 5.8 mph NE9.3 kmh NE 17.3 mph27.8 kmh 30.25 in1024.4 mb - 0.00 in0.0 mm 0.02 in0.5 mm
09:30 AM 67.7°F19.8°C 61.0°F16.1°C 79% Calm Calm 3.5 mph5.6 kmh 30.26 in1024.7 mb - 0.00 in0.0 mm 0.02 in0.5 mm
09:40 AM 67.6°F19.8°C 60.8°F16.0°C 79% 2.3 mph NE3.7 kmh NE 3.5 mph5.6 kmh 30.25 in1024.4 mb - 0.00 in0.0 mm 0.02 in0.5 mm
09:50 AM 68.2°F20.1°C 61.4°F16.3°C 79% 1.2 mph N1.9 kmh N 3.5 mph5.6 kmh 30.26 in1024.7 mb - 0.00 in0.0 mm 0.02 in0.5 mm
10:00 AM 69.7°F20.9°C 61.4°F16.3°C 75% 3.5 mph NNE5.6 kmh NNE 8.1 mph13.0 kmh 30.25 in1024.4 mb - 0.00 in0.0 mm 0.02 in0.5 mm
10:10 AM 70.4°F21.3°C 61.3°F16.3°C 73% 2.3 mph NE3.7 kmh NE 4.6 mph7.4 kmh 30.26 in1024.7 mb - 0.00 in0.0 mm 0.02 in0.5 mm
10:20 AM 70.4°F21.3°C 60.2°F15.7°C 70% 1.2 mph N1.9 kmh N 2.3 mph3.7 kmh 30.26 in1024.7 mb - 0.00 in0.0 mm 0.02 in0.5 mm
10:30 AM 71.9°F22.2°C 62.4°F16.9°C 72% Calm Calm 2.3 mph3.7 kmh 30.26 in1024.7 mb - 0.00 in0.0 mm 0.02 in0.5 mm
10:40 AM 73.5°F23.1°C 62.7°F17.1°C 69% 1.2 mph N1.9 kmh N 3.5 mph5.6 kmh 30.26 in1024.7 mb - 0.00 in0.0 mm 0.02 in0.5 mm
10:50 AM 73.4°F23.0°C 62.2°F16.8°C 68% 3.5 mph E5.6 kmh E 9.2 mph14.8 kmh 30.26 in1024.7 mb - 0.00 in0.0 mm 0.02 in0.5 mm
11:00 AM 73.5°F23.1°C 62.7°F17.1°C 69% 2.3 mph NNE3.7 kmh NNE 12.7 mph20.4 kmh 30.25 in1024.4 mb - 0.00 in0.0 mm 0.02 in0.5 mm
11:10 AM 74.0°F23.3°C 62.3°F16.8°C 67% 1.2 mph N1.9 kmh N 6.9 mph11.1 kmh 30.25 in1024.4 mb - 0.00 in0.0 mm 0.02 in0.5 mm
11:20 AM 73.5°F23.1°C 61.0°F16.1°C 65% 1.2 mph E1.9 kmh E 1.2 mph1.9 kmh 30.25 in1024.4 mb - 0.00 in0.0 mm 0.02 in0.5 mm
11:30 AM 73.2°F22.9°C 60.3°F15.7°C 64% 3.5 mph NE5.6 kmh NE 1.2 mph1.9 kmh 30.25 in1024.4 mb - 0.00 in0.0 mm 0.02 in0.5 mm
11:40 AM 73.1°F22.8°C 60.7°F15.9°C 65% Calm Calm 3.5 mph5.6 kmh 30.25 in1024.4 mb - 0.00 in0.0 mm 0.02 in0.5 mm
11:50 AM 73.4°F23.0°C 60.9°F16.1°C 65% 5.8 mph NE9.3 kmh NE 12.7 mph20.4 kmh 30.24 in1024.0 mb - 0.00 in0.0 mm 0.02 in0.5 mm
12:00 PM 72.8°F22.7°C 60.0°F15.6°C 64% 2.3 mph N3.7 kmh N 11.5 mph18.5 kmh 30.24 in1024.0 mb - 0.00 in0.0 mm 0.02 in0.5 mm
12:10 PM 72.6°F22.6°C 61.0°F16.1°C 67% 2.3 mph NNE3.7 kmh NNE 3.5 mph5.6 kmh 30.24 in1024.0 mb - 0.00 in0.0 mm 0.02 in0.5 mm
12:20 PM 72.7°F22.6°C 61.1°F16.2°C 67% 4.6 mph NNE7.4 kmh NNE 13.8 mph22.2 kmh 30.24 in1024.0 mb - 0.00 in0.0 mm 0.02 in0.5 mm
12:30 PM 73.3°F22.9°C 61.7°F16.5°C 67% 1.2 mph NNE1.9 kmh NNE 3.5 mph5.6 kmh 30.24 in1024.0 mb - 0.00 in0.0 mm 0.02 in0.5 mm
12:40 PM 74.4°F23.6°C 61.9°F16.6°C 65% 2.3 mph NNE3.7 kmh NNE 11.5 mph18.5 kmh 30.23 in1023.7 mb - 0.00 in0.0 mm 0.02 in0.5 mm
12:50 PM 74.7°F23.7°C 61.7°F16.5°C 64% 4.6 mph NE7.4 kmh NE 11.5 mph18.5 kmh 30.23 in1023.7 mb - 0.00 in0.0 mm 0.02 in0.5 mm
01:00 PM 75.4°F24.1°C 61.5°F16.4°C 62% 2.3 mph E3.7 kmh E 11.5 mph18.5 kmh 30.23 in1023.7 mb - 0.00 in0.0 mm 0.02 in0.5 mm
01:10 PM 75.2°F24.0°C 63.0°F17.2°C 66% 3.5 mph N5.6 kmh N 11.5 mph18.5 kmh 30.23 in1023.7 mb - 0.00 in0.0 mm 0.02 in0.5 mm
01:20 PM 75.1°F23.9°C 61.1°F16.2°C 62% 1.2 mph N1.9 kmh N 3.5 mph5.6 kmh 30.23 in1023.7 mb - 0.00 in0.0 mm 0.02 in0.5 mm
01:30 PM 74.9°F23.8°C 62.8°F17.1°C 66% Calm Calm 8.1 mph13.0 kmh 30.22 in1023.4 mb - 0.00 in0.0 mm 0.02 in0.5 mm
01:40 PM 74.2°F23.4°C 61.2°F16.2°C 64% 3.5 mph ENE5.6 kmh ENE 15.0 mph24.1 kmh 30.22 in1023.4 mb - 0.00 in0.0 mm 0.02 in0.5 mm
01:50 PM 74.2°F23.4°C 61.2°F16.2°C 64% 1.2 mph SE1.9 kmh SE -- 30.22 in1023.4 mb - 0.00 in0.0 mm 0.02 in0.5 mm
02:00 PM 75.1°F23.9°C 61.6°F16.4°C 63% Calm Calm 3.5 mph5.6 kmh 30.21 in1023.0 mb - 0.00 in0.0 mm 0.02 in0.5 mm
02:10 PM 75.8°F24.3°C 62.3°F16.8°C 63% 1.2 mph N1.9 kmh N 11.5 mph18.5 kmh 30.21 in1023.0 mb - 0.00 in0.0 mm 0.02 in0.5 mm
02:20 PM 75.3°F24.1°C 61.8°F16.6°C 63% 1.2 mph N1.9 kmh N 4.6 mph7.4 kmh 30.21 in1023.0 mb - 0.00 in0.0 mm 0.02 in0.5 mm
02:30 PM 74.7°F23.7°C 61.8°F16.6°C 64% 1.2 mph NE1.9 kmh NE 2.3 mph3.7 kmh 30.22 in1023.4 mb - 0.00 in0.0 mm 0.02 in0.5 mm
02:40 PM 75.1°F23.9°C 62.1°F16.7°C 64% 1.2 mph NNE1.9 kmh NNE 9.2 mph14.8 kmh 30.21 in1023.0 mb - 0.00 in0.0 mm 0.02 in0.5 mm
02:50 PM 75.1°F23.9°C 61.7°F16.5°C 63% Calm Calm 6.9 mph11.1 kmh 30.21 in1023.0 mb - 0.00 in0.0 mm 0.02 in0.5 mm
03:00 PM 75.0°F23.9°C 62.0°F16.7°C 64% 1.2 mph NNE1.9 kmh NNE 5.8 mph9.3 kmh 30.21 in1023.0 mb - 0.00 in0.0 mm 0.02 in0.5 mm
03:10 PM 73.9°F23.3°C 62.2°F16.8°C 67% 1.2 mph NE1.9 kmh NE 2.3 mph3.7 kmh 30.21 in1023.0 mb - 0.00 in0.0 mm 0.02 in0.5 mm
03:20 PM 72.7°F22.6°C 61.5°F16.4°C 68% 1.2 mph NNE1.9 kmh NNE 3.5 mph5.6 kmh 30.21 in1023.0 mb - 0.00 in0.0 mm 0.02 in0.5 mm
03:30 PM 72.8°F22.7°C 62.0°F16.7°C 69% Calm Calm -- 30.21 in1023.0 mb - 0.00 in0.0 mm 0.02 in0.5 mm
03:40 PM 72.8°F22.7°C 62.0°F16.7°C 69% 1.2 mph NNE1.9 kmh NNE 2.3 mph3.7 kmh 30.21 in1023.0 mb - 0.00 in0.0 mm 0.02 in0.5 mm
03:50 PM 72.0°F22.2°C 61.6°F16.4°C 70% 3.5 mph NE5.6 kmh NE 3.5 mph5.6 kmh 30.21 in1023.0 mb - 0.00 in0.0 mm 0.02 in0.5 mm
04:00 PM 70.7°F21.5°C 60.8°F16.0°C 71% Calm Calm 1.2 mph1.9 kmh 30.21 in1023.0 mb - 0.00 in0.0 mm 0.02 in0.5 mm
04:10 PM 69.4°F20.8°C 60.3°F15.7°C 73% 2.3 mph NNE3.7 kmh NNE 11.5 mph18.5 kmh 30.21 in1023.0 mb - 0.00 in0.0 mm 0.02 in0.5 mm
04:20 PM 69.6°F20.9°C 60.9°F16.1°C 74% 1.2 mph NNE1.9 kmh NNE 3.5 mph5.6 kmh 30.21 in1023.0 mb - 0.00 in0.0 mm 0.02 in0.5 mm
04:30 PM 70.4°F21.3°C 60.9°F16.1°C 72% Calm Calm 4.6 mph7.4 kmh 30.21 in1023.0 mb - 0.00 in0.0 mm 0.02 in0.5 mm
04:40 PM 70.8°F21.6°C 60.6°F15.9°C 70% 5.8 mph NE9.3 kmh NE 11.5 mph18.5 kmh 30.21 in1023.0 mb - 0.00 in0.0 mm 0.02 in0.5 mm
04:50 PM 70.2°F21.2°C 60.4°F15.8°C 71% 1.2 mph N1.9 kmh N 3.5 mph5.6 kmh 30.22 in1023.4 mb - 0.00 in0.0 mm 0.02 in0.5 mm
05:00 PM 70.0°F21.1°C 59.8°F15.4°C 70% 3.5 mph N5.6 kmh N 8.1 mph13.0 kmh 30.22 in1023.4 mb - 0.00 in0.0 mm 0.02 in0.5 mm
05:10 PM 69.8°F21.0°C 59.6°F15.3°C 70% 1.2 mph NE1.9 kmh NE 3.5 mph5.6 kmh 30.22 in1023.4 mb - 0.00 in0.0 mm 0.02 in0.5 mm
05:20 PM 69.2°F20.7°C 59.8°F15.4°C 72% Calm Calm 13.8 mph22.2 kmh 30.23 in1023.7 mb - 0.00 in0.0 mm 0.02 in0.5 mm
05:30 PM 69.2°F20.7°C 59.0°F15.0°C 70% Calm Calm -- 30.23 in1023.7 mb - 0.00 in0.0 mm 0.02 in0.5 mm
05:40 PM 68.6°F20.3°C 58.9°F14.9°C 71% 1.2 mph NNE1.9 kmh NNE 3.5 mph5.6 kmh 30.23 in1023.7 mb - 0.00 in0.0 mm 0.02 in0.5 mm
05:50 PM 67.7°F19.8°C 58.4°F14.7°C 72% Calm Calm 3.5 mph5.6 kmh 30.23 in1023.7 mb - 0.00 in0.0 mm 0.02 in0.5 mm
06:00 PM 67.1°F19.5°C 57.8°F14.3°C 72% Calm Calm -- 30.23 in1023.7 mb - 0.00 in0.0 mm 0.02 in0.5 mm
06:10 PM 66.5°F19.2°C 57.6°F14.2°C 73% 1.2 mph NNE1.9 kmh NNE 3.5 mph5.6 kmh 30.23 in1023.7 mb - 0.00 in0.0 mm 0.02 in0.5 mm
06:20 PM 65.9°F18.8°C 57.0°F13.9°C 73% Calm Calm -- 30.23 in1023.7 mb - 0.00 in0.0 mm 0.02 in0.5 mm
06:30 PM 65.5°F18.6°C 56.2°F13.4°C 72% Calm Calm -- 30.23 in1023.7 mb - 0.00 in0.0 mm 0.02 in0.5 mm
06:40 PM 65.1°F18.4°C 56.6°F13.7°C 74% Calm Calm -- 30.24 in1024.0 mb - 0.00 in0.0 mm 0.02 in0.5 mm
06:50 PM 64.7°F18.2°C 56.9°F13.8°C 76% Calm Calm 2.3 mph3.7 kmh 30.24 in1024.0 mb - 0.00 in0.0 mm 0.02 in0.5 mm
07:00 PM 64.3°F17.9°C 56.2°F13.4°C 75% Calm Calm -- 30.24 in1024.0 mb - 0.00 in0.0 mm 0.02 in0.5 mm
07:10 PM 64.1°F17.8°C 56.3°F13.5°C 76% Calm Calm -- 30.24 in1024.0 mb - 0.00 in0.0 mm 0.02 in0.5 mm
07:20 PM 63.8°F17.7°C 56.1°F13.4°C 76% Calm Calm -- 30.25 in1024.4 mb - 0.00 in0.0 mm 0.02 in0.5 mm
07:30 PM 63.6°F17.6°C 56.3°F13.5°C 77% Calm Calm 4.6 mph7.4 kmh 30.25 in1024.4 mb - 0.00 in0.0 mm 0.02 in0.5 mm
07:40 PM 63.4°F17.4°C 56.4°F13.6°C 78% Calm Calm -- 30.25 in1024.4 mb - 0.00 in0.0 mm 0.02 in0.5 mm
07:50 PM 63.2°F17.3°C 56.2°F13.4°C 78% Calm Calm -- 30.26 in1024.7 mb - 0.00 in0.0 mm 0.02 in0.5 mm
08:00 PM 63.1°F17.3°C 56.2°F13.4°C 78% Calm Calm -- 30.26 in1024.7 mb - 0.00 in0.0 mm 0.02 in0.5 mm
08:10 PM 63.3°F17.4°C 56.6°F13.7°C 79% Calm Calm -- 30.27 in1025.1 mb - 0.00 in0.0 mm 0.02 in0.5 mm
08:20 PM 63.3°F17.4°C 56.7°F13.7°C 79% Calm Calm -- 30.27 in1025.1 mb - 0.00 in0.0 mm 0.02 in0.5 mm
08:30 PM 63.3°F17.4°C 57.0°F13.9°C 80% 1.2 mph N1.9 kmh N -- 30.27 in1025.1 mb - 0.00 in0.0 mm 0.02 in0.5 mm
08:40 PM 63.3°F17.4°C 57.4°F14.1°C 81% Calm Calm -- 30.27 in1025.1 mb - 0.00 in0.0 mm 0.02 in0.5 mm
08:50 PM 63.5°F17.5°C 57.5°F14.2°C 81% Calm Calm 3.5 mph5.6 kmh 30.27 in1025.1 mb - 0.00 in0.0 mm 0.02 in0.5 mm
09:00 PM 63.6°F17.6°C 58.0°F14.4°C 82% Calm Calm 3.5 mph5.6 kmh 30.28 in1025.4 mb - 0.00 in0.0 mm 0.02 in0.5 mm
09:10 PM 63.3°F17.4°C 57.7°F14.3°C 82% Calm Calm -- 30.27 in1025.1 mb - 0.00 in0.0 mm 0.02 in0.5 mm
09:20 PM 63.1°F17.3°C 57.9°F14.4°C 83% Calm Calm -- 30.27 in1025.1 mb - 0.00 in0.0 mm 0.02 in0.5 mm
09:30 PM 63.2°F17.3°C 57.9°F14.4°C 83% Calm Calm -- 30.28 in1025.4 mb - 0.00 in0.0 mm 0.02 in0.5 mm
09:40 PM 63.4°F17.4°C 58.5°F14.7°C 84% 2.3 mph NNE3.7 kmh NNE 4.6 mph7.4 kmh 30.28 in1025.4 mb - 0.00 in0.0 mm 0.02 in0.5 mm
09:50 PM 63.5°F17.5°C 58.9°F14.9°C 85% 2.3 mph NNE3.7 kmh NNE 3.5 mph5.6 kmh 30.28 in1025.4 mb - 0.00 in0.0 mm 0.02 in0.5 mm
10:00 PM 63.4°F17.4°C 59.8°F15.4°C 88% Calm Calm -- 30.28 in1025.4 mb - 0.00 in0.0 mm 0.02 in0.5 mm
10:10 PM 62.9°F17.2°C 59.6°F15.3°C 89% Calm Calm 6.9 mph11.1 kmh 30.28 in1025.4 mb - 0.00 in0.0 mm 0.02 in0.5 mm
10:20 PM 62.5°F16.9°C 59.5°F15.3°C 90% Calm Calm 1.2 mph1.9 kmh 30.28 in1025.4 mb - 0.00 in0.0 mm 0.02 in0.5 mm
10:30 PM 62.2°F16.8°C 59.6°F15.3°C 91% Calm Calm -- 30.28 in1025.4 mb - 0.00 in0.0 mm 0.02 in0.5 mm
10:40 PM 62.0°F16.7°C 59.4°F15.2°C 91% 1.2 mph NNE1.9 kmh NNE -- 30.28 in1025.4 mb - 0.00 in0.0 mm 0.02 in0.5 mm
10:50 PM 62.0°F16.7°C 59.6°F15.3°C 92% Calm Calm 2.3 mph3.7 kmh 30.27 in1025.1 mb - 0.00 in0.0 mm 0.02 in0.5 mm
11:00 PM 62.0°F16.7°C 59.6°F15.3°C 92% 2.3 mph NNE3.7 kmh NNE 6.9 mph11.1 kmh 30.27 in1025.1 mb - 0.00 in0.0 mm 0.00 in0.0 mm
11:10 PM 61.9°F16.6°C 59.2°F15.1°C 91% 2.3 mph NNE3.7 kmh NNE 5.8 mph9.3 kmh 30.27 in1025.1 mb - 0.00 in0.0 mm 0.00 in0.0 mm
11:20 PM 61.9°F16.6°C 59.0°F15.0°C 90% 1.2 mph NNE1.9 kmh NNE 3.5 mph5.6 kmh 30.27 in1025.1 mb - 0.00 in0.0 mm 0.00 in0.0 mm
11:30 PM 62.2°F16.8°C 59.2°F15.1°C 90% 4.6 mph ENE7.4 kmh ENE 9.2 mph14.8 kmh 30.27 in1025.1 mb - 0.00 in0.0 mm 0.00 in0.0 mm
11:40 PM 62.3°F16.8°C 59.0°F15.0°C 89% 1.2 mph NNE1.9 kmh NNE 3.5 mph5.6 kmh 30.27 in1025.1 mb - 0.00 in0.0 mm 0.00 in0.0 mm
11:50 PM 62.2°F16.8°C 59.0°F15.0°C 89% Calm Calm 6.9 mph11.1 kmh 30.27 in1025.1 mb - 0.00 in0.0 mm 0.00 in0.0 mm